Time;durP1;ratioP1;P1;durP2;ratioP2;P2;SDS_P1;SDS_P2;PMS_P1;PMS_P2;Temp;Humidity;BMP_temperature;BMP_pressure;BME280_temperature;BME280_humidity;BME280_pressure;Samples;Min_cycle;Max_cycle;Signal;HPM_P1;HPM_P2
2022/09/14 00:01:47;;;;;;;1.67;1.57;;;24.60;46.60;;;;;;6206232;23;20186;-63
2022/09/14 00:04:15;;;;;;;1.50;1.40;;;24.60;46.50;;;;;;6207988;23;20190;-60
2022/09/14 00:06:41;;;;;;;1.50;1.40;;;24.60;46.50;;;;;;6208514;23;20202;-63
2022/09/14 00:09:10;;;;;;;1.70;1.60;;;24.60;46.50;;;;;;6210615;23;20419;-59
2022/09/14 00:11:36;;;;;;;2.00;1.90;;;24.60;46.50;;;;;;6194802;23;20406;-60
2022/09/14 00:14:04;;;;;;;2.10;1.53;;;24.60;46.40;;;;;;6200216;23;20823;-63
2022/09/14 00:16:32;;;;;;;1.70;1.50;;;24.60;46.50;;;;;;6188752;23;20479;-59
2022/09/14 00:19:04;;;;;;;1.80;1.70;;;24.60;46.50;;;;;;6176215;23;20437;-60
2022/09/14 00:21:30;;;;;;;1.70;1.60;;;24.60;46.40;;;;;;6178730;23;20427;-65
2022/09/14 00:23:56;;;;;;;1.53;1.43;;;24.60;46.50;;;;;;6187288;23;20997;-59
2022/09/14 00:26:22;;;;;;;2.50;1.80;;;24.60;46.50;;;;;;6208310;23;20431;-59
2022/09/14 00:28:52;;;;;;;1.50;1.40;;;24.60;46.40;;;;;;6208002;23;20197;-61
2022/09/14 00:31:19;;;;;;;1.57;1.47;;;24.60;46.40;;;;;;6206820;23;20916;-60
2022/09/14 00:33:47;;;;;;;1.63;1.53;;;24.60;46.40;;;;;;6208630;23;20407;-63
2022/09/14 00:36:21;;;;;;;1.60;1.50;;;24.60;46.40;;;;;;6206106;23;20877;-59
2022/09/14 00:38:47;;;;;;;1.67;1.50;;;24.60;46.40;;;;;;6209872;23;20414;-60
2022/09/14 00:41:20;;;;;;;1.47;1.30;;;24.60;46.50;;;;;;6207043;23;20454;-59
2022/09/14 00:44:00;;;;;;;1.30;1.20;;;24.60;46.40;;;;;;6205872;23;20420;-60
2022/09/14 00:46:29;;;;;;;1.40;1.30;;;24.60;46.30;;;;;;6206427;23;20820;-60
2022/09/14 00:48:59;;;;;;;1.63;1.53;;;24.60;46.30;;;;;;6206041;23;20427;-64
2022/09/14 00:51:25;;;;;;;1.63;1.53;;;24.60;46.30;;;;;;6207854;23;20423;-58
2022/09/14 00:53:51;;;;;;;1.40;1.30;;;24.60;46.30;;;;;;6204302;23;20423;-59
2022/09/14 00:56:17;;;;;;;1.90;1.80;;;24.60;46.40;;;;;;6205357;23;20895;-60
2022/09/14 00:58:45;;;;;;;1.50;1.40;;;24.50;46.20;;;;;;6205534;23;20201;-61
2022/09/14 01:01:10;;;;;;;1.50;1.40;;;24.60;46.30;;;;;;6202699;23;20208;-62
2022/09/14 01:03:36;;;;;;;1.40;1.30;;;24.60;46.30;;;;;;6208795;23;20404;-59
2022/09/14 01:06:17;;;;;;;1.50;1.40;;;24.50;46.20;;;;;;6204050;23;20212;-65
2022/09/14 01:09:11;;;;;;;1.37;1.27;;;24.50;46.10;;;;;;6173412;23;20272;-60
2022/09/14 01:12:05;;;;;;;1.40;1.30;;;24.50;46.20;;;;;;6174673;23;20405;-60
2022/09/14 01:14:57;;;;;;;1.30;1.20;;;24.50;46.20;;;;;;6127542;22;20469;-63
2022/09/14 01:17:31;;;;;;;1.40;1.30;;;24.50;46.10;;;;;;6173251;23;20981;-59
2022/09/14 01:20:18;;;;;;;1.43;1.27;;;24.50;46.10;;;;;;6175719;23;20948;-61
2022/09/14 01:23:27;;;;;;;1.43;1.33;;;24.50;46.10;;;;;;6174957;23;20413;-63
2022/09/14 01:26:32;;;;;;;1.50;1.40;;;24.50;46.10;;;;;;6109068;23;20849;-59
2022/09/14 01:29:18;;;;;;;1.40;1.30;;;24.50;46.10;;;;;;6111373;23;20414;-59
2022/09/14 01:31:50;;;;;;;1.40;1.30;;;24.50;46.10;;;;;;6183572;23;20431;-59
2022/09/14 01:34:30;;;;;;;1.40;1.30;;;24.50;46.10;;;;;;6203968;23;20424;-59
2022/09/14 01:37:14;;;;;;;1.33;1.23;;;24.50;46.10;;;;;;6204692;23;20490;-59
2022/09/14 01:39:45;;;;;;;1.43;1.33;;;24.50;46.10;;;;;;6184922;23;20427;-59
2022/09/14 01:42:12;;;;;;;1.50;1.40;;;24.50;46.10;;;;;;6173863;23;20448;-59
2022/09/14 01:44:41;;;;;;;1.60;1.50;;;24.50;46.10;;;;;;6177423;23;20444;-60
2022/09/14 01:47:22;;;;;;;1.60;1.20;;;24.50;46.00;;;;;;6197193;23;20419;-62
2022/09/14 01:49:52;;;;;;;1.30;1.20;;;24.50;46.00;;;;;;6202559;23;20422;-61
2022/09/14 01:52:37;;;;;;;1.30;1.20;;;24.50;46.00;;;;;;6206132;23;20481;-61
2022/09/14 01:55:09;;;;;;;1.30;1.20;;;24.50;46.00;;;;;;6203820;23;21071;-65
2022/09/14 01:57:41;;;;;;;1.50;1.40;;;24.50;46.00;;;;;;6204378;23;20867;-63
2022/09/14 02:00:10;;;;;;;1.53;1.20;;;24.50;46.70;;;;;;6177152;23;20816;-60
2022/09/14 02:02:45;;;;;;;1.30;1.20;;;24.50;46.00;;;;;;6204644;23;20415;-61
2022/09/14 02:05:26;;;;;;;1.30;1.20;;;24.50;46.00;;;;;;6203690;23;20908;-63
2022/09/14 02:07:52;;;;;;;1.40;1.30;;;24.50;46.00;;;;;;6206523;23;20419;-60
2022/09/14 02:10:18;;;;;;;1.20;1.10;;;24.50;46.00;;;;;;6205021;23;20989;-59
2022/09/14 02:12:44;;;;;;;1.20;1.10;;;24.50;45.90;;;;;;6204947;23;20435;-59
2022/09/14 02:15:12;;;;;;;1.30;1.20;;;24.50;45.90;;;;;;6205054;23;20241;-64
2022/09/14 02:17:38;;;;;;;1.50;1.40;;;24.50;46.00;;;;;;6206299;23;21123;-64
2022/09/14 02:20:07;;;;;;;1.33;1.23;;;24.50;45.90;;;;;;6181341;23;20419;-63
2022/09/14 02:22:33;;;;;;;1.37;1.27;;;24.50;45.90;;;;;;6175008;23;20202;-61
2022/09/14 02:24:59;;;;;;;1.20;1.10;;;24.50;45.90;;;;;;6175559;23;20435;-61
2022/09/14 02:27:25;;;;;;;1.80;1.27;;;24.50;45.90;;;;;;6177591;23;20420;-59
2022/09/14 02:29:51;;;;;;;1.30;1.20;;;24.50;45.80;;;;;;6206701;23;20426;-59
2022/09/14 02:32:34;;;;;;;1.63;1.03;;;24.50;45.80;;;;;;6205595;23;20193;-60
2022/09/14 02:35:24;;;;;;;1.33;1.10;;;24.50;45.80;;;;;;6203382;23;20442;-60
2022/09/14 02:38:08;;;;;;;1.40;1.30;;;24.50;45.80;;;;;;6203196;23;20415;-62
2022/09/14 02:40:34;;;;;;;1.30;1.20;;;24.50;45.90;;;;;;6186675;23;20411;-59
2022/09/14 02:43:20;;;;;;;1.93;1.40;;;24.50;45.80;;;;;;6204263;23;20415;-59
2022/09/14 02:46:03;;;;;;;1.23;1.13;;;24.50;45.80;;;;;;6171209;23;20198;-60
2022/09/14 02:48:47;;;;;;;4.23;1.17;;;24.50;45.80;;;;;;6175023;23;20423;-60
2022/09/14 02:51:21;;;;;;;1.30;1.20;;;24.50;45.80;;;;;;6204423;23;20431;-61
2022/09/14 02:54:00;;;;;;;1.87;1.17;;;24.50;45.80;;;;;;6205208;23;20722;-60
2022/09/14 02:56:27;;;;;;;1.20;1.10;;;24.50;45.80;;;;;;6205860;23;20411;-59
2022/09/14 02:58:53;;;;;;;1.33;1.23;;;24.50;45.80;;;;;;6205319;23;20416;-59
2022/09/14 03:01:20;;;;;;;1.30;1.20;;;24.50;45.80;;;;;;6202814;23;20925;-64
2022/09/14 03:03:46;;;;;;;1.17;1.07;;;24.50;45.80;;;;;;6204996;23;20216;-59
2022/09/14 03:06:12;;;;;;;1.07;0.97;;;24.50;45.80;;;;;;6204324;23;20887;-60
2022/09/14 03:08:37;;;;;;;1.13;1.07;;;24.50;45.80;;;;;;6207475;23;20220;-61
2022/09/14 03:11:04;;;;;;;1.27;1.17;;;24.50;45.80;;;;;;6174269;23;20195;-61
2022/09/14 03:13:30;;;;;;;1.20;1.00;;;24.50;45.80;;;;;;6175752;23;20194;-60
2022/09/14 03:15:56;;;;;;;1.50;1.40;;;24.50;45.80;;;;;;6173457;23;20437;-60
2022/09/14 03:18:21;;;;;;;1.77;1.33;;;24.50;45.80;;;;;;6175507;23;20209;-59
2022/09/14 03:20:47;;;;;;;1.30;1.20;;;24.50;45.80;;;;;;6175469;23;20202;-60
2022/09/14 03:23:13;;;;;;;3.00;1.23;;;24.50;45.80;;;;;;6175046;23;20225;-62
2022/09/14 03:25:41;;;;;;;1.20;1.10;;;24.50;45.80;;;;;;6176795;23;20289;-60
2022/09/14 03:28:08;;;;;;;1.10;1.00;;;24.50;45.80;;;;;;6176407;23;20892;-62
2022/09/14 03:30:33;;;;;;;1.47;1.37;;;24.50;45.80;;;;;;6176976;23;20414;-59
2022/09/14 03:32:59;;;;;;;1.17;1.07;;;24.50;45.80;;;;;;6175550;23;20487;-59
2022/09/14 03:35:27;;;;;;;1.10;1.00;;;24.50;45.80;;;;;;6174959;23;20631;-59
2022/09/14 03:37:52;;;;;;;1.30;1.20;;;24.50;45.70;;;;;;6176991;23;20424;-61
2022/09/14 03:40:18;;;;;;;1.97;1.67;;;24.50;45.70;;;;;;6174880;23;20500;-59
2022/09/14 03:42:48;;;;;;;2.60;1.20;;;24.50;45.70;;;;;;6175630;23;20268;-60
2022/09/14 03:45:15;;;;;;;1.57;1.47;;;24.50;45.70;;;;;;6176803;23;20210;-59
2022/09/14 03:47:42;;;;;;;1.30;1.20;;;24.50;45.70;;;;;;6176903;23;20880;-60
2022/09/14 03:50:10;;;;;;;1.20;1.10;;;24.50;45.80;;;;;;6177377;23;20412;-61
2022/09/14 03:52:35;;;;;;;1.20;1.10;;;24.50;45.70;;;;;;6175014;23;20425;-61
2022/09/14 03:55:02;;;;;;;1.60;1.50;;;24.50;45.70;;;;;;6175135;23;20416;-60
2022/09/14 03:57:28;;;;;;;1.30;1.17;;;24.50;45.70;;;;;;6174716;23;22955;-59
2022/09/14 03:59:53;;;;;;;2.60;1.30;;;24.50;46.50;;;;;;6172572;23;20416;-59
2022/09/14 04:02:19;;;;;;;0.90;0.90;;;24.50;45.70;;;;;;6173570;23;20206;-59
2022/09/14 04:04:47;;;;;;;1.30;1.10;;;24.50;45.70;;;;;;6174922;23;20685;-59
2022/09/14 04:07:16;;;;;;;1.37;1.27;;;24.50;45.70;;;;;;6177954;23;20198;-59
2022/09/14 04:09:42;;;;;;;1.10;1.00;;;24.50;45.70;;;;;;6174573;23;20416;-60
2022/09/14 04:12:08;;;;;;;1.30;1.20;;;24.50;45.70;;;;;;6179203;23;20428;-61
2022/09/14 04:14:33;;;;;;;1.50;1.30;;;24.50;45.70;;;;;;6174069;23;20207;-60
2022/09/14 04:16:59;;;;;;;1.20;1.10;;;24.50;45.70;;;;;;6175923;23;20435;-62
2022/09/14 04:19:24;;;;;;;1.20;1.10;;;24.50;45.70;;;;;;6177999;23;20226;-61
2022/09/14 04:21:50;;;;;;;1.30;1.20;;;24.50;45.70;;;;;;6178405;23;20604;-61
2022/09/14 04:24:15;;;;;;;1.20;1.10;;;24.50;45.70;;;;;;6174764;23;20203;-62
2022/09/14 04:26:42;;;;;;;1.30;1.20;;;24.50;45.60;;;;;;6175622;23;20218;-60
2022/09/14 04:29:10;;;;;;;1.30;1.20;;;24.50;45.60;;;;;;6176021;23;20270;-59
2022/09/14 04:31:35;;;;;;;1.30;1.20;;;24.50;45.50;;;;;;6173460;23;20408;-63
2022/09/14 04:34:01;;;;;;;3.83;1.17;;;24.50;45.50;;;;;;6175503;23;20439;-59
2022/09/14 04:36:29;;;;;;;1.33;1.23;;;24.60;45.50;;;;;;6176392;23;20202;-57
2022/09/14 04:38:56;;;;;;;1.20;1.10;;;24.50;45.40;;;;;;6171912;23;20269;-61
2022/09/14 04:41:23;;;;;;;1.20;1.10;;;24.60;45.50;;;;;;6173182;23;21280;-63
2022/09/14 04:43:50;;;;;;;1.10;1.00;;;24.60;45.50;;;;;;6171066;23;20428;-59
2022/09/14 04:46:18;;;;;;;1.20;1.10;;;24.60;45.50;;;;;;6175481;23;21177;-63
2022/09/14 04:48:44;;;;;;;1.70;1.60;;;24.60;45.40;;;;;;6175789;23;20975;-61
2022/09/14 04:51:16;;;;;;;1.20;1.10;;;24.60;45.40;;;;;;6175941;23;20432;-62
2022/09/14 04:53:42;;;;;;;1.20;1.10;;;24.60;45.50;;;;;;6177925;23;20195;-59
2022/09/14 04:56:10;;;;;;;1.87;1.30;;;24.60;45.50;;;;;;6175824;23;20424;-64
2022/09/14 04:58:38;;;;;;;1.30;1.17;;;24.60;45.40;;;;;;6175601;23;20444;-60
2022/09/14 05:01:09;;;;;;;1.73;1.33;;;24.60;45.40;;;;;;6197207;23;20416;-59
2022/09/14 05:03:39;;;;;;;1.43;1.00;;;24.60;45.40;;;;;;6199746;23;20466;-61
2022/09/14 05:06:10;;;;;;;1.90;1.00;;;24.60;45.50;;;;;;6180162;23;20423;-59
2022/09/14 05:08:37;;;;;;;1.00;0.90;;;24.60;45.40;;;;;;6176133;23;20458;-61
2022/09/14 05:11:04;;;;;;;1.20;1.10;;;24.60;45.50;;;;;;6175599;23;20873;-62
2022/09/14 05:13:29;;;;;;;1.20;1.10;;;24.60;45.50;;;;;;6171811;23;20419;-67
2022/09/14 05:16:23;;;;;;;1.13;1.03;;;24.60;45.50;;;;;;6174536;23;20432;-61
2022/09/14 05:18:49;;;;;;;1.33;1.20;;;24.60;45.50;;;;;;6205968;23;20245;-60
2022/09/14 05:21:17;;;;;;;1.27;1.13;;;24.60;45.50;;;;;;6206633;23;20416;-61
2022/09/14 05:23:43;;;;;;;1.10;1.00;;;24.60;45.50;;;;;;6205800;23;20411;-62
2022/09/14 05:26:09;;;;;;;2.13;1.10;;;24.60;45.50;;;;;;6200544;23;20415;-66
2022/09/14 05:28:35;;;;;;;6.43;1.20;;;24.60;45.50;;;;;;6205387;23;20886;-59
2022/09/14 05:31:05;;;;;;;2.80;1.23;;;24.60;45.40;;;;;;6202598;23;20204;-58
2022/09/14 05:33:31;;;;;;;1.30;1.20;;;24.60;45.50;;;;;;6204535;23;20996;-59
2022/09/14 05:36:02;;;;;;;1.90;1.40;;;24.60;45.50;;;;;;6205135;23;20487;-58
2022/09/14 05:38:29;;;;;;;2.70;1.40;;;24.60;45.50;;;;;;6196475;23;21235;-61
2022/09/14 05:40:55;;;;;;;4.77;1.20;;;24.60;45.40;;;;;;6200284;23;20424;-63
2022/09/14 05:43:21;;;;;;;1.80;1.20;;;24.60;45.30;;;;;;6197960;23;20470;-59
2022/09/14 05:45:47;;;;;;;1.40;1.30;;;24.70;45.40;;;;;;6201272;23;20312;-63
2022/09/14 05:48:13;;;;;;;1.20;1.10;;;24.70;45.50;;;;;;6202343;23;20423;-58
2022/09/14 05:50:39;;;;;;;1.77;1.13;;;24.70;45.40;;;;;;6199747;23;20466;-63
2022/09/14 05:53:04;;;;;;;1.10;1.10;;;24.70;45.30;;;;;;6203373;23;20272;-58
2022/09/14 05:55:30;;;;;;;1.20;1.10;;;24.70;45.30;;;;;;6199588;23;20225;-62
2022/09/14 05:57:55;;;;;;;2.43;1.70;;;24.70;45.30;;;;;;6201134;23;20222;-59
2022/09/14 06:00:21;;;;;;;1.30;1.20;;;24.70;45.30;;;;;;6200956;23;20540;-59
2022/09/14 06:02:48;;;;;;;1.53;1.43;;;24.70;45.30;;;;;;6203659;23;20197;-59
2022/09/14 06:05:14;;;;;;;1.10;1.00;;;24.70;45.30;;;;;;6202363;23;20240;-59
2022/09/14 06:07:40;;;;;;;1.37;1.27;;;24.70;45.30;;;;;;6201920;23;20506;-58
2022/09/14 06:10:06;;;;;;;1.23;1.10;;;24.70;45.30;;;;;;6204424;23;20201;-58
2022/09/14 06:12:32;;;;;;;1.23;1.13;;;24.70;45.30;;;;;;6202948;23;20194;-59
2022/09/14 06:14:57;;;;;;;2.07;1.17;;;24.70;45.30;;;;;;6200036;23;20934;-63
2022/09/14 06:17:23;;;;;;;1.80;1.20;;;24.70;45.30;;;;;;6200915;23;20655;-62
2022/09/14 06:19:49;;;;;;;1.70;1.10;;;24.70;45.30;;;;;;6199500;23;20273;-58
2022/09/14 06:22:14;;;;;;;1.20;1.10;;;24.70;45.30;;;;;;6201415;23;20206;-61
2022/09/14 06:24:40;;;;;;;2.13;1.23;;;24.70;45.30;;;;;;6201216;23;20200;-60
2022/09/14 06:27:07;;;;;;;1.40;1.20;;;24.70;45.30;;;;;;6203374;23;20251;-59
2022/09/14 06:29:33;;;;;;;1.27;1.17;;;24.70;45.40;;;;;;6201482;23;20194;-59
2022/09/14 06:31:59;;;;;;;2.00;1.30;;;24.70;45.40;;;;;;6203127;23;20478;-59
2022/09/14 06:34:25;;;;;;;1.23;1.10;;;24.70;45.40;;;;;;6200364;23;20753;-61
2022/09/14 06:36:50;;;;;;;1.00;0.90;;;24.70;45.30;;;;;;6199461;23;20566;-58
2022/09/14 06:39:16;;;;;;;1.20;1.10;;;24.70;45.40;;;;;;6199789;23;20292;-58
2022/09/14 06:41:42;;;;;;;1.23;1.13;;;24.70;45.30;;;;;;6198767;23;20243;-62
2022/09/14 06:44:07;;;;;;;1.40;1.10;;;24.70;45.40;;;;;;6197826;23;20527;-63
2022/09/14 06:46:34;;;;;;;1.47;1.37;;;24.70;45.40;;;;;;6199663;23;20210;-58
2022/09/14 06:49:05;;;;;;;2.50;1.50;;;24.70;45.50;;;;;;6200469;23;21181;-62
2022/09/14 06:51:34;;;;;;;1.23;1.13;;;24.70;45.50;;;;;;6198428;23;20441;-59
2022/09/14 06:54:00;;;;;;;1.70;1.20;;;24.70;45.50;;;;;;6198931;23;20648;-59
2022/09/14 06:56:27;;;;;;;1.10;1.00;;;24.70;45.50;;;;;;6200305;23;20419;-61
2022/09/14 06:58:53;;;;;;;4.03;1.40;;;24.70;45.50;;;;;;6199414;23;20431;-58
2022/09/14 07:01:19;;;;;;;1.10;1.03;;;24.70;45.50;;;;;;6199533;23;20416;-61
2022/09/14 07:03:46;;;;;;;1.23;1.13;;;24.70;45.50;;;;;;6198622;23;20531;-58
2022/09/14 07:06:15;;;;;;;1.13;1.03;;;24.70;45.50;;;;;;6198501;23;20428;-61
2022/09/14 07:08:41;;;;;;;1.33;1.00;;;24.70;45.50;;;;;;6201731;23;20421;-60
2022/09/14 07:11:08;;;;;;;1.47;0.97;;;24.70;45.50;;;;;;6200732;23;20403;-62
2022/09/14 07:13:35;;;;;;;1.77;1.20;;;24.70;45.50;;;;;;6173004;23;20195;-58
2022/09/14 07:16:02;;;;;;;1.23;1.10;;;24.70;45.50;;;;;;6169680;23;20440;-57
2022/09/14 07:18:31;;;;;;;1.20;1.10;;;24.70;45.60;;;;;;6169467;23;20504;-59
2022/09/14 07:21:17;;;;;;;1.10;1.00;;;24.70;45.50;;;;;;6167984;23;20435;-64
2022/09/14 07:23:44;;;;;;;1.30;1.20;;;24.70;45.50;;;;;;6166635;23;20502;-62
2022/09/14 07:26:21;;;;;;;1.20;1.10;;;24.70;45.60;;;;;;6173279;23;20428;-60
2022/09/14 07:28:49;;;;;;;1.37;1.27;;;24.70;45.60;;;;;;6170684;23;20495;-59
2022/09/14 07:31:18;;;;;;;2.13;1.10;;;24.70;45.60;;;;;;6170453;23;20791;-59
2022/09/14 07:33:45;;;;;;;1.30;1.20;;;24.70;45.60;;;;;;6171342;23;21177;-58
2022/09/14 07:36:11;;;;;;;1.00;1.00;;;24.70;45.60;;;;;;6168769;23;20417;-61
2022/09/14 07:38:37;;;;;;;3.33;1.13;;;24.70;45.60;;;;;;6175779;23;20418;-59
2022/09/14 07:41:04;;;;;;;1.23;1.13;;;24.70;45.50;;;;;;6171640;23;20428;-58
2022/09/14 07:43:29;;;;;;;1.73;1.30;;;24.70;45.60;;;;;;6171816;23;20424;-58
2022/09/14 07:45:55;;;;;;;3.20;1.83;;;24.70;45.60;;;;;;6171718;23;20429;-60
2022/09/14 07:48:21;;;;;;;1.27;1.17;;;24.70;45.60;;;;;;6173109;23;20273;-59
2022/09/14 07:50:46;;;;;;;1.53;1.23;;;24.70;45.60;;;;;;6171936;23;20260;-58
2022/09/14 07:53:13;;;;;;;1.10;1.00;;;24.70;45.60;;;;;;6172827;23;20416;-63
2022/09/14 07:55:39;;;;;;;1.50;1.10;;;24.70;45.60;;;;;;6173891;23;20221;-62
2022/09/14 07:58:06;;;;;;;1.07;0.97;;;24.70;45.60;;;;;;6172189;23;20439;-63
2022/09/14 08:00:32;;;;;;;1.30;1.20;;;24.70;45.60;;;;;;6172939;23;20447;-60
2022/09/14 08:02:58;;;;;;;1.20;1.10;;;24.70;45.60;;;;;;6172578;23;20412;-59
2022/09/14 08:05:24;;;;;;;1.30;1.20;;;24.70;45.60;;;;;;6174411;23;20752;-59
2022/09/14 08:07:54;;;;;;;3.57;1.13;;;24.70;45.60;;;;;;6174480;23;20744;-60
2022/09/14 08:10:20;;;;;;;1.83;1.17;;;24.70;45.60;;;;;;6173403;23;20420;-61
2022/09/14 08:12:50;;;;;;;1.40;1.30;;;24.70;45.60;;;;;;6169755;23;20423;-62
2022/09/14 08:15:16;;;;;;;2.30;1.30;;;24.70;45.60;;;;;;6172512;23;20222;-59
2022/09/14 08:17:41;;;;;;;1.60;1.50;;;24.70;45.60;;;;;;6173796;23;20416;-61
2022/09/14 08:20:07;;;;;;;1.50;1.40;;;24.70;45.70;;;;;;6173861;23;20190;-59
2022/09/14 08:22:33;;;;;;;2.40;1.40;;;24.70;45.60;;;;;;6172495;23;20293;-62
2022/09/14 08:24:58;;;;;;;3.67;1.23;;;24.70;45.70;;;;;;6173908;23;20229;-59
2022/09/14 08:27:24;;;;;;;1.30;1.20;;;24.70;45.70;;;;;;6173415;23;20603;-63
2022/09/14 08:29:49;;;;;;;3.80;1.13;;;24.70;45.70;;;;;;6171732;23;20217;-61
2022/09/14 08:32:15;;;;;;;1.20;1.10;;;24.60;45.60;;;;;;6173906;23;20197;-63
2022/09/14 08:34:41;;;;;;;1.30;1.20;;;24.60;45.60;;;;;;6171791;23;20205;-59
2022/09/14 08:37:06;;;;;;;1.20;1.10;;;24.70;45.70;;;;;;6176302;23;20395;-60
2022/09/14 08:39:32;;;;;;;1.40;1.23;;;24.60;45.60;;;;;;6168277;23;20194;-59
2022/09/14 08:41:59;;;;;;;3.40;1.20;;;24.70;45.70;;;;;;6173063;23;20567;-59
2022/09/14 08:44:31;;;;;;;1.40;1.23;;;24.60;45.80;;;;;;6173391;23;20197;-63
2022/09/14 08:47:09;;;;;;;1.67;1.13;;;24.60;45.60;;;;;;6167959;23;20450;-58
2022/09/14 08:50:03;;;;;;;1.37;1.27;;;24.60;45.70;;;;;;6173357;23;20420;-61
2022/09/14 08:52:49;;;;;;;0.90;0.90;;;24.60;45.70;;;;;;6201120;23;20414;-58
2022/09/14 08:55:34;;;;;;;1.40;1.10;;;24.60;45.70;;;;;;6175794;23;20470;-61
2022/09/14 08:58:00;;;;;;;1.40;1.30;;;24.60;45.70;;;;;;6189816;23;20430;-59
2022/09/14 09:00:37;;;;;;;1.23;1.13;;;24.60;45.70;;;;;;6173282;23;20503;-61
2022/09/14 09:03:20;;;;;;;2.03;1.43;;;24.60;45.70;;;;;;6198368;23;20575;-59
2022/09/14 09:06:05;;;;;;;1.30;1.20;;;24.60;45.70;;;;;;6157793;23;20790;-58
2022/09/14 09:08:45;;;;;;;1.33;1.23;;;24.60;45.80;;;;;;6198282;23;20407;-60
2022/09/14 09:11:18;;;;;;;7.67;1.30;;;24.60;45.80;;;;;;6184673;23;20419;-60
2022/09/14 09:13:45;;;;;;;1.13;1.00;;;24.60;45.70;;;;;;6201635;23;20416;-60
2022/09/14 09:16:11;;;;;;;2.23;1.20;;;24.60;45.80;;;;;;6203238;23;20431;-59
2022/09/14 09:18:47;;;;;;;1.87;1.33;;;24.60;45.70;;;;;;6204152;23;20439;-60
2022/09/14 09:21:14;;;;;;;1.30;1.20;;;24.60;45.70;;;;;;6170813;23;20412;-62
2022/09/14 09:23:40;;;;;;;1.57;1.47;;;24.60;45.70;;;;;;6196498;23;20454;-59
2022/09/14 09:26:20;;;;;;;1.30;1.10;;;24.60;45.70;;;;;;6203269;23;20427;-59
2022/09/14 09:28:50;;;;;;;1.40;1.17;;;24.60;45.70;;;;;;6171488;23;20884;-59
2022/09/14 09:31:18;;;;;;;2.07;1.30;;;24.60;45.60;;;;;;6189918;23;20417;-63
2022/09/14 09:33:47;;;;;;;1.30;1.20;;;24.60;45.60;;;;;;6189293;23;20412;-59
2022/09/14 09:36:14;;;;;;;1.30;1.20;;;24.60;45.60;;;;;;6173627;23;20431;-61
2022/09/14 09:38:39;;;;;;;1.23;1.13;;;24.60;45.60;;;;;;6200523;23;20938;-59
2022/09/14 09:41:23;;;;;;;1.20;1.10;;;24.60;45.60;;;;;;6202584;23;20455;-59
2022/09/14 09:44:05;;;;;;;1.63;1.30;;;24.60;45.50;;;;;;6180442;23;20266;-59
2022/09/14 09:46:37;;;;;;;1.30;1.20;;;24.60;45.50;;;;;;6168961;23;20507;-58
2022/09/14 09:49:21;;;;;;;1.47;1.37;;;24.60;45.50;;;;;;6171662;23;20428;-58
2022/09/14 09:51:48;;;;;;;1.40;1.30;;;24.60;45.50;;;;;;6185668;23;20420;-60
2022/09/14 09:54:16;;;;;;;1.77;1.30;;;24.60;45.40;;;;;;6171116;23;20421;-63
2022/09/14 09:56:57;;;;;;;1.50;1.40;;;24.50;45.30;;;;;;6170618;23;20459;-59
2022/09/14 09:59:34;;;;;;;1.10;1.00;;;24.50;45.20;;;;;;6171453;23;20947;-61
2022/09/14 10:02:24;;;;;;;1.40;1.30;;;24.50;45.20;;;;;;6188443;23;20411;-59
2022/09/14 10:05:02;;;;;;;1.47;1.37;;;24.60;45.30;;;;;;6169329;23;20443;-63
2022/09/14 10:07:31;;;;;;;1.53;1.43;;;24.50;45.20;;;;;;6181143;23;20470;-59
2022/09/14 10:10:08;;;;;;;1.50;1.40;;;24.50;45.20;;;;;;6201625;23;20446;-60
2022/09/14 10:12:36;;;;;;;1.40;1.30;;;24.50;45.20;;;;;;6199075;23;21025;-60
2022/09/14 10:15:14;;;;;;;1.50;1.40;;;24.50;45.20;;;;;;6202011;23;20523;-59
2022/09/14 10:17:51;;;;;;;1.30;1.20;;;24.50;45.20;;;;;;6170591;23;20441;-58
2022/09/14 10:20:23;;;;;;;1.23;1.13;;;24.50;45.20;;;;;;6173387;23;20424;-59
2022/09/14 10:22:48;;;;;;;2.10;1.30;;;24.50;45.20;;;;;;6171253;23;20429;-60
2022/09/14 10:25:14;;;;;;;1.50;1.40;;;24.50;45.20;;;;;;6172338;23;20965;-59
2022/09/14 10:27:47;;;;;;;1.50;1.40;;;24.50;45.20;;;;;;6173267;23;20202;-59
2022/09/14 10:30:18;;;;;;;1.50;1.40;;;24.50;45.20;;;;;;6168455;23;20205;-60
2022/09/14 10:32:58;;;;;;;1.40;1.30;;;24.50;45.20;;;;;;6173255;23;20884;-59
2022/09/14 10:35:38;;;;;;;1.20;1.10;;;24.50;45.20;;;;;;6170833;23;20431;-60
2022/09/14 10:38:10;;;;;;;2.50;1.30;;;24.50;45.90;;;;;;6171671;23;20504;-60
2022/09/14 10:40:43;;;;;;;1.73;1.63;;;24.50;45.20;;;;;;6201796;23;20582;-57
2022/09/14 10:43:14;;;;;;;1.40;1.30;;;24.50;45.20;;;;;;6174854;23;20736;-61
2022/09/14 10:45:51;;;;;;;1.73;1.50;;;24.50;45.20;;;;;;6197082;23;20496;-59
2022/09/14 10:48:19;;;;;;;2.40;1.60;;;24.50;45.10;;;;;;6201261;23;20423;-62
2022/09/14 10:50:52;;;;;;;1.50;1.40;;;24.50;45.20;;;;;;6197260;23;20513;-61
2022/09/14 10:53:45;;;;;;;1.40;1.30;;;24.50;45.20;;;;;;6201454;23;20454;-60
2022/09/14 10:56:37;;;;;;;2.27;1.80;;;24.50;45.20;;;;;;6193749;23;20506;-61
2022/09/14 10:59:46;;;;;;;1.63;1.53;;;24.50;45.20;;;;;;6121931;23;20484;-60
2022/09/14 11:02:30;;;;;;;1.50;1.40;;;24.50;45.20;;;;;;6115140;23;20511;-62
2022/09/14 11:05:22;;;;;;;1.90;1.80;;;24.50;45.20;;;;;;6201447;23;20420;-59
2022/09/14 11:08:04;;;;;;;1.60;1.50;;;24.50;45.20;;;;;;6186277;23;20430;-59
2022/09/14 11:10:56;;;;;;;1.57;1.47;;;24.50;45.30;;;;;;6185806;23;20420;-62
2022/09/14 11:13:40;;;;;;;1.73;1.57;;;24.50;46.10;;;;;;6170091;23;20424;-63
2022/09/14 11:16:46;;;;;;;1.60;1.50;;;24.50;45.30;;;;;;6170653;23;20424;-61
2022/09/14 11:19:30;;;;;;;1.60;1.50;;;24.50;45.30;;;;;;6193206;23;20510;-59
2022/09/14 11:22:04;;;;;;;1.53;1.43;;;24.50;45.30;;;;;;6170202;23;20416;-63
2022/09/14 11:24:54;;;;;;;1.37;1.27;;;24.50;45.30;;;;;;6171265;23;20408;-61
2022/09/14 11:27:30;;;;;;;1.40;1.30;;;24.50;45.30;;;;;;6170167;23;20435;-59
2022/09/14 11:30:17;;;;;;;1.53;1.43;;;24.50;45.30;;;;;;6179600;23;20450;-59
2022/09/14 11:33:03;;;;;;;1.87;1.67;;;24.50;45.30;;;;;;6166742;23;20416;-59
2022/09/14 11:35:36;;;;;;;1.93;1.83;;;24.50;45.30;;;;;;6164913;23;20593;-59
2022/09/14 11:38:17;;;;;;;1.40;1.30;;;24.50;46.10;;;;;;6165075;23;20962;-65
2022/09/14 11:40:46;;;;;;;1.57;1.47;;;24.50;45.30;;;;;;6165165;23;20412;-59
2022/09/14 11:43:20;;;;;;;10.37;1.73;;;24.50;45.30;;;;;;6166809;23;20883;-64
2022/09/14 11:45:50;;;;;;;1.40;1.30;;;24.50;45.20;;;;;;6188001;23;20518;-58
2022/09/14 11:48:29;;;;;;;1.40;1.30;;;24.50;45.20;;;;;;6194916;23;20485;-60
2022/09/14 11:51:10;;;;;;;1.47;1.37;;;24.50;45.20;;;;;;6198115;23;21209;-63
2022/09/14 11:53:38;;;;;;;1.30;1.20;;;24.50;45.10;;;;;;6185901;23;20833;-63
2022/09/14 11:56:04;;;;;;;1.40;1.30;;;24.50;45.20;;;;;;6167669;23;20906;-60
2022/09/14 11:58:30;;;;;;;1.73;1.20;;;24.50;45.20;;;;;;6168114;23;20471;-63
2022/09/14 12:01:31;;;;;;;2.00;1.30;;;24.50;45.20;;;;;;6168349;23;20626;-62
2022/09/14 12:04:00;;;;;;;1.50;1.40;;;24.50;45.20;;;;;;6188685;23;20238;-61
2022/09/14 12:06:34;;;;;;;1.53;1.43;;;24.50;45.20;;;;;;6186443;23;20494;-60
2022/09/14 12:09:22;;;;;;;1.40;1.30;;;24.50;45.20;;;;;;6200009;23;20414;-59
2022/09/14 12:11:53;;;;;;;1.33;1.23;;;24.50;45.20;;;;;;6170504;23;20443;-59
2022/09/14 12:14:32;;;;;;;1.20;1.10;;;24.50;45.20;;;;;;6199994;23;20423;-64
2022/09/14 12:17:30;;;;;;;1.47;1.37;;;24.50;45.20;;;;;;6198981;23;20728;-66
2022/09/14 12:20:18;;;;;;;1.87;1.10;;;24.50;45.20;;;;;;6175612;23;20494;-65
2022/09/14 12:22:44;;;;;;;1.50;1.30;;;24.50;45.30;;;;;;6196957;23;20403;-59
2022/09/14 12:25:15;;;;;;;1.40;1.30;;;24.50;45.30;;;;;;6200435;23;20435;-59
2022/09/14 12:27:41;;;;;;;1.87;1.77;;;24.50;45.30;;;;;;6200917;23;20208;-59
2022/09/14 12:30:49;;;;;;;1.30;1.20;;;24.50;45.30;;;;;;6204567;23;20408;-60
2022/09/14 12:33:32;;;;;;;1.60;1.40;;;24.50;45.20;;;;;;6167358;23;20433;-62
2022/09/14 12:36:06;;;;;;;1.40;1.30;;;24.50;45.30;;;;;;6184750;23;20424;-64
2022/09/14 12:38:40;;;;;;;1.50;1.40;;;24.50;45.20;;;;;;6171936;23;20428;-58
2022/09/14 12:41:11;;;;;;;1.50;1.40;;;24.50;45.30;;;;;;6196035;23;20411;-59
2022/09/14 12:43:40;;;;;;;1.50;1.20;;;24.50;45.30;;;;;;6196874;23;20415;-59
2022/09/14 12:46:10;;;;;;;1.30;1.20;;;24.50;45.30;;;;;;6196604;23;20438;-62
2022/09/14 12:48:47;;;;;;;1.33;1.23;;;24.50;45.30;;;;;;6185332;23;20430;-59
2022/09/14 12:51:32;;;;;;;1.20;1.10;;;24.50;45.30;;;;;;6196028;23;20439;-63
2022/09/14 12:53:57;;;;;;;1.50;1.40;;;24.50;45.30;;;;;;6203012;23;20419;-63
2022/09/14 12:56:41;;;;;;;1.40;1.30;;;24.50;45.30;;;;;;6202733;23;20430;-58
2022/09/14 12:59:17;;;;;;;1.30;1.20;;;24.50;45.20;;;;;;6195780;23;20577;-64
2022/09/14 13:02:16;;;;;;;1.30;1.20;;;24.50;45.30;;;;;;6181793;23;20463;-60
2022/09/14 13:04:44;;;;;;;1.13;1.03;;;24.50;45.30;;;;;;6171676;23;20737;-63
2022/09/14 13:07:18;;;;;;;1.30;1.20;;;24.50;45.00;;;;;;6167069;23;20558;-59
2022/09/14 13:09:48;;;;;;;1.40;1.30;;;24.50;45.10;;;;;;6199778;23;20914;-59
2022/09/14 13:12:21;;;;;;;1.40;1.30;;;24.50;45.00;;;;;;6202004;23;20477;-62